Time;durP1;ratioP1;P1;durP2;ratioP2;P2;SDS_P1;SDS_P2;PMS_P1;PMS_P2;Temp;Humidity;BMP_temperature;BMP_pressure;BME280_temperature;BME280_humidity;BME280_pressure;Samples;Min_cycle;Max_cycle;Signal;HPM_P1;HPM_P2
2022/10/16 00:01:39;;;;;;;14.48;3.97;;;15.90;99.90;;;;;;4999532;28;20093;-56
2022/10/16 00:04:04;;;;;;;7.22;3.75;;;15.90;99.90;;;;;;4997246;28;20129;-50
2022/10/16 00:06:31;;;;;;;17.27;15.32;;;15.90;99.90;;;;;;4997965;28;20031;-56
2022/10/16 00:08:57;;;;;;;40.83;27.92;;;16.00;99.90;;;;;;4998315;28;20073;-54
2022/10/16 00:11:25;;;;;;;10.27;6.75;;;15.90;99.90;;;;;;4998509;28;20052;-56
2022/10/16 00:13:54;;;;;;;6.05;3.45;;;15.90;99.90;;;;;;4998391;28;20077;-56
2022/10/16 00:16:19;;;;;;;6.18;3.42;;;15.90;99.90;;;;;;4997914;28;20041;-53
2022/10/16 00:18:45;;;;;;;9.25;3.70;;;15.90;99.90;;;;;;4998073;28;20033;-55
2022/10/16 00:21:14;;;;;;;9.45;3.78;;;15.90;99.90;;;;;;4996761;28;20035;-56
2022/10/16 00:23:40;;;;;;;8.65;3.50;;;15.90;99.90;;;;;;4997504;28;20406;-54
2022/10/16 00:26:08;;;;;;;7.43;3.97;;;16.00;99.90;;;;;;4997379;28;20122;-55
2022/10/16 00:28:34;;;;;;;6.38;3.20;;;16.00;99.90;;;;;;4997712;28;20033;-54
2022/10/16 00:31:04;;;;;;;8.63;3.30;;;15.90;99.90;;;;;;4996802;28;20026;-51
2022/10/16 00:33:30;;;;;;;7.43;2.90;;;15.90;99.90;;;;;;4997167;28;20375;-51
2022/10/16 00:35:58;;;;;;;7.00;3.58;;;15.90;99.90;;;;;;4996878;28;20109;-56
2022/10/16 00:38:24;;;;;;;6.97;2.47;;;15.90;99.90;;;;;;4997666;28;20026;-53
2022/10/16 00:40:49;;;;;;;3.58;2.80;;;15.90;99.90;;;;;;4995686;28;20034;-55
2022/10/16 00:43:42;;;;;;;3.78;2.30;;;16.00;99.90;;;;;;4996506;28;20030;-53
2022/10/16 00:46:39;;;;;;;7.70;2.50;;;16.00;99.90;;;;;;4996408;28;20559;-54
2022/10/16 00:49:15;;;;;;;4.03;2.40;;;15.90;99.90;;;;;;4996558;28;20022;-52
2022/10/16 00:51:53;;;;;;;3.22;1.80;;;15.90;99.90;;;;;;4996966;28;20081;-55
2022/10/16 00:54:28;;;;;;;1.95;1.75;;;16.00;99.90;;;;;;4996111;28;20105;-53
2022/10/16 00:56:56;;;;;;;3.88;1.95;;;16.00;99.90;;;;;;4996115;28;20030;-51
2022/10/16 00:59:48;;;;;;;2.00;1.80;;;16.00;99.90;;;;;;4996055;28;20038;-51
2022/10/16 01:02:15;;;;;;;2.95;1.75;;;16.00;99.90;;;;;;4993131;28;20069;-51
2022/10/16 01:04:50;;;;;;;6.13;1.73;;;16.00;99.90;;;;;;4995809;28;20022;-57
2022/10/16 01:08:04;;;;;;;4.05;1.80;;;16.00;99.90;;;;;;4996004;28;20049;-55
2022/10/16 01:11:03;;;;;;;3.55;1.50;;;16.00;99.90;;;;;;4994538;28;20026;-52
2022/10/16 01:13:42;;;;;;;1.33;1.23;;;16.00;99.90;;;;;;4984319;28;20030;-54
2022/10/16 01:16:34;;;;;;;1.88;1.30;;;16.00;99.90;;;;;;4995766;28;20433;-54
2022/10/16 01:19:15;;;;;;;4.22;2.70;;;16.00;99.90;;;;;;4995616;28;20113;-53
2022/10/16 01:21:43;;;;;;;2.42;1.30;;;16.00;99.90;;;;;;4995605;28;20402;-49
2022/10/16 01:24:11;;;;;;;1.20;1.20;;;16.00;99.90;;;;;;4995311;28;20037;-51
2022/10/16 01:27:13;;;;;;;1.55;1.45;;;16.00;99.90;;;;;;4995284;28;20074;-51
2022/10/16 01:29:52;;;;;;;4.47;1.55;;;16.00;99.90;;;;;;4994159;28;20026;-51
2022/10/16 01:32:47;;;;;;;3.22;1.17;;;16.00;99.90;;;;;;4994737;28;20030;-51
2022/10/16 01:35:29;;;;;;;4.18;1.02;;;15.90;99.90;;;;;;4995551;28;20041;-54
2022/10/16 01:38:03;;;;;;;4.97;1.27;;;16.00;99.90;;;;;;4995570;28;20027;-52
2022/10/16 01:40:32;;;;;;;1.10;1.00;;;16.00;99.90;;;;;;4995144;28;20513;-53
2022/10/16 01:43:07;;;;;;;1.15;1.05;;;15.90;99.90;;;;;;4994485;28;20057;-53
2022/10/16 01:45:34;;;;;;;2.10;1.20;;;16.00;99.90;;;;;;4995141;28;20030;-54
2022/10/16 01:48:04;;;;;;;1.63;1.20;;;16.00;99.90;;;;;;4995359;28;20045;-55
2022/10/16 01:50:33;;;;;;;2.88;1.67;;;16.00;99.90;;;;;;4995077;28;20109;-52
2022/10/16 01:53:01;;;;;;;3.38;1.10;;;15.90;99.90;;;;;;4995092;28;20366;-50
2022/10/16 01:55:35;;;;;;;2.35;1.10;;;15.90;99.90;;;;;;4995099;28;20549;-52
2022/10/16 01:58:02;;;;;;;1.85;1.00;;;15.90;99.90;;;;;;4995273;28;20034;-53
2022/10/16 02:00:29;;;;;;;1.90;1.10;;;15.90;99.90;;;;;;4995840;28;20037;-53
2022/10/16 02:02:56;;;;;;;1.42;1.27;;;15.90;99.90;;;;;;4995139;28;20033;-51
2022/10/16 02:05:28;;;;;;;7.57;0.90;;;15.90;99.90;;;;;;4995449;28;20018;-54
2022/10/16 02:07:53;;;;;;;2.50;1.20;;;15.90;99.90;;;;;;4995786;28;20062;-51
2022/10/16 02:10:20;;;;;;;3.03;0.80;;;15.90;99.90;;;;;;4995877;28;20093;-50
2022/10/16 02:12:50;;;;;;;1.40;1.10;;;15.90;99.90;;;;;;4995526;28;20042;-51
2022/10/16 02:15:16;;;;;;;1.48;0.93;;;15.90;99.90;;;;;;4995974;28;20030;-52
2022/10/16 02:17:41;;;;;;;1.73;1.25;;;15.80;99.90;;;;;;5015995;22;20410;-45
2022/10/16 02:20:07;;;;;;;1.20;0.90;;;15.80;99.90;;;;;;4992528;28;20031;-46
2022/10/16 02:22:40;;;;;;;0.88;0.88;;;15.80;99.90;;;;;;4992002;28;20410;-46
2022/10/16 02:25:29;;;;;;;3.63;1.17;;;15.80;99.90;;;;;;4992625;28;20478;-48
2022/10/16 02:28:07;;;;;;;3.08;1.13;;;15.80;99.90;;;;;;4991779;28;20103;-46
2022/10/16 02:30:55;;;;;;;1.52;0.90;;;15.80;99.90;;;;;;4991806;28;20133;-46
2022/10/16 02:33:23;;;;;;;3.95;0.98;;;15.80;99.90;;;;;;4991870;28;20049;-47
2022/10/16 02:35:50;;;;;;;31.17;20.80;;;15.80;99.90;;;;;;4990835;28;20030;-51
2022/10/16 02:38:17;;;;;;;14.65;9.20;;;15.80;99.90;;;;;;4991780;28;20450;-49
2022/10/16 02:40:43;;;;;;;5.45;2.15;;;15.80;99.90;;;;;;4991828;28;20038;-43
2022/10/16 02:43:09;;;;;;;1.95;0.88;;;15.80;99.90;;;;;;4991447;28;20034;-50
2022/10/16 02:45:35;;;;;;;3.50;0.73;;;15.80;99.90;;;;;;4991812;28;20490;-49
2022/10/16 02:48:01;;;;;;;0.60;0.60;;;15.90;99.90;;;;;;4991900;28;20390;-45
2022/10/16 02:50:26;;;;;;;2.03;0.90;;;15.90;99.90;;;;;;4991766;28;20391;-49
2022/10/16 02:52:52;;;;;;;2.25;0.70;;;15.90;99.90;;;;;;4991455;28;20027;-50
2022/10/16 02:55:18;;;;;;;1.17;0.73;;;16.00;99.90;;;;;;4991740;28;20026;-50
2022/10/16 02:57:43;;;;;;;1.92;0.70;;;15.90;99.90;;;;;;4990246;28;20373;-50
2022/10/16 03:00:11;;;;;;;2.60;0.80;;;16.00;99.90;;;;;;4990215;28;20030;-44
2022/10/16 03:02:37;;;;;;;1.63;0.80;;;16.00;99.90;;;;;;4989950;28;20035;-49
2022/10/16 03:05:02;;;;;;;1.05;0.82;;;16.00;99.90;;;;;;4991682;28;20387;-48
2022/10/16 03:07:28;;;;;;;1.67;0.65;;;16.00;99.90;;;;;;4991503;28;20018;-47
2022/10/16 03:09:54;;;;;;;1.15;0.93;;;16.00;99.90;;;;;;4993553;28;20053;-51
2022/10/16 03:12:19;;;;;;;0.77;0.68;;;16.00;99.90;;;;;;4993538;28;20052;-52
2022/10/16 03:14:45;;;;;;;3.70;0.88;;;15.90;99.90;;;;;;4995036;28;20110;-47
2022/10/16 03:17:12;;;;;;;0.82;0.82;;;15.90;99.90;;;;;;4995270;28;20053;-47
2022/10/16 03:19:38;;;;;;;1.40;0.80;;;15.90;99.90;;;;;;4995061;28;20091;-48
2022/10/16 03:22:03;;;;;;;4.55;0.70;;;15.90;99.90;;;;;;4994641;28;20023;-49
2022/10/16 03:24:29;;;;;;;3.15;1.00;;;15.90;99.90;;;;;;4995467;28;20490;-47
2022/10/16 03:26:54;;;;;;;1.10;0.68;;;15.90;99.90;;;;;;4994823;28;20026;-50
2022/10/16 03:29:20;;;;;;;8.65;2.17;;;15.90;99.90;;;;;;4994745;28;20038;-52
2022/10/16 03:31:45;;;;;;;1.75;0.82;;;15.90;99.90;;;;;;4994493;28;20030;-45
2022/10/16 03:34:11;;;;;;;2.05;0.82;;;15.90;99.90;;;;;;4994765;28;20026;-47
2022/10/16 03:36:36;;;;;;;3.03;0.88;;;16.00;99.90;;;;;;4994870;28;20030;-48
2022/10/16 03:39:02;;;;;;;1.38;0.70;;;16.00;99.90;;;;;;4994498;28;20033;-47
2022/10/16 03:41:28;;;;;;;1.38;0.50;;;16.10;99.90;;;;;;4994537;28;20022;-47
2022/10/16 03:43:53;;;;;;;1.05;0.85;;;16.00;99.90;;;;;;4994307;28;20085;-48
2022/10/16 03:46:19;;;;;;;1.65;0.90;;;16.00;99.90;;;;;;4994783;28;20433;-48
2022/10/16 03:48:44;;;;;;;2.53;1.08;;;16.10;99.90;;;;;;4994324;28;20441;-47
2022/10/16 03:51:10;;;;;;;2.28;0.88;;;16.10;99.90;;;;;;4994531;28;20030;-46
2022/10/16 03:53:35;;;;;;;1.75;1.00;;;16.00;99.90;;;;;;4994142;28;20022;-48
2022/10/16 03:56:01;;;;;;;1.25;1.00;;;16.00;99.90;;;;;;4994250;28;20031;-50
2022/10/16 03:58:26;;;;;;;1.65;1.27;;;16.00;99.90;;;;;;4994205;28;20038;-48
2022/10/16 04:00:52;;;;;;;1.95;0.90;;;16.00;99.90;;;;;;4994194;28;20113;-49
2022/10/16 04:03:18;;;;;;;3.75;0.90;;;16.00;99.90;;;;;;4993887;28;20394;-53
2022/10/16 04:05:44;;;;;;;2.83;0.73;;;16.00;99.90;;;;;;4994238;28;20026;-51
2022/10/16 04:08:10;;;;;;;3.13;0.80;;;16.00;99.90;;;;;;4994517;28;20160;-52
2022/10/16 04:10:35;;;;;;;0.70;0.70;;;16.00;99.90;;;;;;4992740;28;20386;-47
2022/10/16 04:13:01;;;;;;;6.15;0.73;;;16.00;99.90;;;;;;4993863;28;20069;-51
2022/10/16 04:15:26;;;;;;;0.80;0.63;;;16.00;99.90;;;;;;4994008;28;20069;-50
2022/10/16 04:17:53;;;;;;;2.83;0.82;;;16.00;99.90;;;;;;4993726;28;20112;-48
2022/10/16 04:20:18;;;;;;;2.85;0.73;;;16.00;99.90;;;;;;4993351;28;20030;-49
2022/10/16 04:22:44;;;;;;;2.00;1.10;;;16.00;99.90;;;;;;4992991;28;20053;-48
2022/10/16 04:25:11;;;;;;;1.63;0.65;;;16.00;99.90;;;;;;4993687;28;20015;-50
2022/10/16 04:27:36;;;;;;;3.90;0.93;;;16.00;99.90;;;;;;4992318;28;20062;-47
2022/10/16 04:30:02;;;;;;;0.68;0.68;;;16.00;99.90;;;;;;4993762;28;20076;-46
2022/10/16 04:32:27;;;;;;;1.35;0.95;;;16.00;99.90;;;;;;4993138;28;20033;-49
2022/10/16 04:34:53;;;;;;;1.08;0.65;;;16.00;99.90;;;;;;4993496;28;20115;-50
2022/10/16 04:37:22;;;;;;;1.48;0.70;;;16.00;99.90;;;;;;4993445;28;20026;-47
2022/10/16 04:39:48;;;;;;;0.85;0.65;;;16.00;99.90;;;;;;4993579;28;20037;-47
2022/10/16 04:42:13;;;;;;;2.22;0.75;;;16.00;99.90;;;;;;4993107;28;20030;-50
2022/10/16 04:44:39;;;;;;;4.90;0.95;;;16.00;99.90;;;;;;4993372;28;20069;-50
2022/10/16 04:47:08;;;;;;;2.78;0.63;;;16.00;99.90;;;;;;4992179;28;20465;-49
2022/10/16 04:49:33;;;;;;;2.03;0.77;;;16.10;99.90;;;;;;4993176;28;20109;-49
2022/10/16 04:51:59;;;;;;;2.67;1.00;;;16.10;99.90;;;;;;4993111;28;20097;-47
2022/10/16 04:54:24;;;;;;;2.85;1.08;;;16.00;99.90;;;;;;4993464;28;20049;-51
2022/10/16 04:56:51;;;;;;;3.15;1.20;;;16.00;99.90;;;;;;4993302;28;20117;-50
2022/10/16 04:59:18;;;;;;;1.92;0.80;;;16.00;99.90;;;;;;4993053;28;20033;-50
2022/10/16 05:01:44;;;;;;;2.17;1.42;;;16.00;99.90;;;;;;4993175;28;20517;-47
2022/10/16 05:04:10;;;;;;;1.33;1.23;;;16.00;99.90;;;;;;4992799;28;20077;-49
2022/10/16 05:06:36;;;;;;;0.98;0.90;;;15.90;99.90;;;;;;4993213;28;20398;-51
2022/10/16 05:09:02;;;;;;;4.30;1.58;;;15.80;99.90;;;;;;4993163;28;20030;-47
2022/10/16 05:11:27;;;;;;;1.20;1.10;;;16.00;99.90;;;;;;4993039;28;20022;-47
2022/10/16 05:13:53;;;;;;;3.63;1.20;;;15.90;99.90;;;;;;4992762;28;20109;-50
2022/10/16 05:16:18;;;;;;;2.05;1.35;;;16.00;99.90;;;;;;4992971;28;20364;-48
2022/10/16 05:18:44;;;;;;;5.35;1.48;;;16.00;99.90;;;;;;4992634;28;20524;-49
2022/10/16 05:21:09;;;;;;;2.05;1.30;;;16.00;99.90;;;;;;4993037;28;20037;-49
2022/10/16 05:23:35;;;;;;;1.20;1.10;;;16.00;99.90;;;;;;4992418;28;20053;-49
2022/10/16 05:26:00;;;;;;;2.38;1.30;;;16.00;99.90;;;;;;4992678;28;20019;-51
2022/10/16 05:28:28;;;;;;;1.65;1.45;;;15.90;99.90;;;;;;4992467;28;20026;-48
2022/10/16 05:30:54;;;;;;;1.10;1.10;;;15.90;99.90;;;;;;4992114;28;20031;-49
2022/10/16 05:33:21;;;;;;;12.18;1.50;;;15.90;99.90;;;;;;4992065;28;20552;-51
2022/10/16 05:35:47;;;;;;;6.05;1.90;;;15.80;99.90;;;;;;4991312;28;20034;-49
2022/10/16 05:38:13;;;;;;;3.40;1.80;;;15.90;99.90;;;;;;4992415;28;20160;-49
2022/10/16 05:40:39;;;;;;;3.22;2.60;;;15.90;99.90;;;;;;4992555;28;20101;-52
2022/10/16 05:43:04;;;;;;;5.93;2.83;;;15.80;99.90;;;;;;4992094;28;20022;-49
2022/10/16 05:45:30;;;;;;;5.35;3.65;;;15.80;99.90;;;;;;4991292;28;20037;-47
2022/10/16 05:47:55;;;;;;;6.30;4.15;;;15.80;99.90;;;;;;4992456;28;20022;-48
2022/10/16 05:50:21;;;;;;;4.70;4.15;;;15.80;99.90;;;;;;4992263;28;20033;-51
2022/10/16 05:52:46;;;;;;;5.90;4.20;;;15.80;99.90;;;;;;4991981;28;20126;-50
2022/10/16 05:55:12;;;;;;;7.63;4.15;;;15.80;99.90;;;;;;4992292;28;20097;-49
2022/10/16 05:57:38;;;;;;;7.72;4.72;;;15.80;99.90;;;;;;4992433;28;20030;-48
2022/10/16 06:00:04;;;;;;;4.78;4.35;;;15.80;99.90;;;;;;4992179;28;20097;-51
2022/10/16 06:02:30;;;;;;;6.35;4.00;;;15.80;99.90;;;;;;4991807;28;20034;-48
2022/10/16 06:04:56;;;;;;;5.20;4.20;;;15.80;99.90;;;;;;4992229;28;20393;-50
2022/10/16 06:07:22;;;;;;;10.75;4.22;;;15.80;99.90;;;;;;4992355;28;20113;-51
2022/10/16 06:09:49;;;;;;;4.75;4.20;;;15.80;99.90;;;;;;4992197;28;20038;-52
2022/10/16 06:12:15;;;;;;;6.88;4.60;;;15.90;99.90;;;;;;4991842;28;20027;-47
2022/10/16 06:14:41;;;;;;;6.60;4.47;;;15.90;99.90;;;;;;4992486;28;20081;-48
2022/10/16 06:17:06;;;;;;;8.55;3.80;;;15.90;99.90;;;;;;4992100;28;20034;-51
2022/10/16 06:19:32;;;;;;;6.47;4.53;;;16.00;99.90;;;;;;4992550;28;20041;-47
2022/10/16 06:21:58;;;;;;;6.00;4.38;;;16.00;99.90;;;;;;4991878;28;20027;-49
2022/10/16 06:24:24;;;;;;;4.75;4.13;;;16.00;99.90;;;;;;4992101;28;20022;-49
2022/10/16 06:26:49;;;;;;;8.10;4.18;;;16.00;99.90;;;;;;4992229;28;20027;-48
2022/10/16 06:29:15;;;;;;;4.72;3.80;;;16.00;99.90;;;;;;4992108;28;20454;-52
2022/10/16 06:31:41;;;;;;;8.63;5.82;;;16.00;99.90;;;;;;4992348;28;20027;-53
2022/10/16 06:34:10;;;;;;;5.93;5.07;;;16.00;99.90;;;;;;4992234;28;20026;-49
2022/10/16 06:36:36;;;;;;;7.55;4.40;;;16.10;99.90;;;;;;4991982;28;20501;-50
2022/10/16 06:39:02;;;;;;;9.82;4.32;;;16.10;99.90;;;;;;4991743;28;20026;-50
2022/10/16 06:41:27;;;;;;;6.70;4.45;;;16.10;99.90;;;;;;4992002;28;20101;-50
2022/10/16 06:43:53;;;;;;;8.93;3.75;;;16.10;99.90;;;;;;4991907;28;20080;-48
2022/10/16 06:46:22;;;;;;;4.72;3.65;;;16.10;99.90;;;;;;4995872;28;20026;-47
2022/10/16 06:48:47;;;;;;;7.75;3.53;;;16.10;99.90;;;;;;4995718;28;20090;-47
2022/10/16 06:51:15;;;;;;;4.13;3.50;;;16.00;99.90;;;;;;4994523;28;20046;-53
2022/10/16 06:53:46;;;;;;;5.28;3.50;;;16.00;99.90;;;;;;4995307;28;20034;-53
2022/10/16 06:56:13;;;;;;;12.02;3.72;;;16.00;99.90;;;;;;4995602;28;20022;-51
2022/10/16 06:58:39;;;;;;;5.78;3.40;;;16.00;99.90;;;;;;4995219;28;20081;-49
2022/10/16 07:01:07;;;;;;;10.95;4.38;;;16.00;99.90;;;;;;4994059;28;20037;-48
2022/10/16 07:03:33;;;;;;;11.30;3.60;;;16.10;99.90;;;;;;4994976;28;20047;-49
2022/10/16 07:06:03;;;;;;;4.38;3.10;;;16.00;99.90;;;;;;4995235;28;20022;-50
2022/10/16 07:08:37;;;;;;;7.75;4.38;;;16.00;99.90;;;;;;4995255;28;20423;-51
2022/10/16 07:11:05;;;;;;;3.80;3.47;;;16.10;99.90;;;;;;4995538;28;20050;-50
2022/10/16 07:13:34;;;;;;;5.30;3.05;;;16.10;99.90;;;;;;4995226;28;20405;-49
2022/10/16 07:16:05;;;;;;;4.95;3.40;;;16.10;99.90;;;;;;4995211;28;20506;-52
2022/10/16 07:18:32;;;;;;;6.53;3.50;;;16.10;99.90;;;;;;4994835;28;20069;-51
2022/10/16 07:21:25;;;;;;;4.07;3.45;;;16.20;99.90;;;;;;4995092;28;20030;-54
2022/10/16 07:23:51;;;;;;;11.57;4.40;;;16.20;99.90;;;;;;4994682;28;20022;-48
2022/10/16 07:26:17;;;;;;;8.18;3.33;;;16.20;99.90;;;;;;4993648;28;20026;-48
2022/10/16 07:28:43;;;;;;;4.60;3.38;;;16.20;99.90;;;;;;4994996;28;20084;-49
2022/10/16 07:31:13;;;;;;;5.35;3.40;;;16.30;99.90;;;;;;4994551;28;20022;-50
2022/10/16 07:33:40;;;;;;;5.53;3.50;;;16.20;99.90;;;;;;4994548;28;20045;-50
2022/10/16 07:36:06;;;;;;;3.90;2.95;;;16.20;99.90;;;;;;4994788;28;20036;-48
2022/10/16 07:38:31;;;;;;;3.92;3.10;;;16.20;99.90;;;;;;4994514;28;20045;-48
2022/10/16 07:40:58;;;;;;;4.47;3.10;;;16.20;99.90;;;;;;4994607;28;20030;-50
2022/10/16 07:43:24;;;;;;;6.90;3.28;;;16.20;99.90;;;;;;4994310;28;20105;-47
2022/10/16 07:45:50;;;;;;;7.38;3.47;;;16.20;99.90;;;;;;4994582;28;20449;-49
2022/10/16 07:48:17;;;;;;;4.78;3.50;;;16.30;99.90;;;;;;4994558;28;20030;-47
2022/10/16 07:50:43;;;;;;;3.38;3.13;;;16.30;99.90;;;;;;4994502;28;20026;-48
2022/10/16 07:53:09;;;;;;;7.90;3.97;;;16.30;99.90;;;;;;4994166;28;20037;-48
2022/10/16 07:55:35;;;;;;;9.32;4.50;;;16.30;99.90;;;;;;4994083;28;20034;-47
2022/10/16 07:58:00;;;;;;;5.45;3.80;;;16.40;99.90;;;;;;4994292;28;20026;-49
2022/10/16 08:00:26;;;;;;;5.18;3.92;;;16.40;99.90;;;;;;4994291;28;20466;-48
2022/10/16 08:02:51;;;;;;;6.25;3.88;;;16.50;99.90;;;;;;4993933;28;20030;-47
2022/10/16 08:05:17;;;;;;;10.88;4.10;;;16.50;99.90;;;;;;4994206;28;20096;-48
2022/10/16 08:07:42;;;;;;;9.00;3.42;;;16.40;99.90;;;;;;4994117;28;20037;-47
2022/10/16 08:10:16;;;;;;;6.93;3.67;;;16.40;99.90;;;;;;4993846;28;20018;-49
2022/10/16 08:12:42;;;;;;;7.03;3.65;;;16.40;99.90;;;;;;4993826;28;20023;-50
2022/10/16 08:15:08;;;;;;;4.55;3.25;;;16.40;99.90;;;;;;4994084;28;20068;-51
2022/10/16 08:17:34;;;;;;;4.15;3.53;;;16.40;99.90;;;;;;4993976;28;20027;-54
2022/10/16 08:19:59;;;;;;;5.07;3.42;;;16.40;99.90;;;;;;5016542;23;20054;-53
2022/10/16 08:22:25;;;;;;;5.65;3.47;;;16.50;99.90;;;;;;4994027;28;20018;-50
2022/10/16 08:24:50;;;;;;;7.32;3.30;;;16.40;99.90;;;;;;4995104;28;20041;-48
2022/10/16 08:27:16;;;;;;;6.05;3.33;;;16.50;99.90;;;;;;4994743;28;20022;-49
2022/10/16 08:29:41;;;;;;;9.18;3.97;;;16.40;99.90;;;;;;4994705;28;20077;-53
2022/10/16 08:32:07;;;;;;;8.25;3.70;;;16.50;99.90;;;;;;4993338;28;20372;-52
2022/10/16 08:34:32;;;;;;;7.00;3.55;;;16.50;99.90;;;;;;4993339;28;20214;-48
2022/10/16 08:36:58;;;;;;;7.60;4.15;;;16.30;99.90;;;;;;4994852;28;20026;-50
2022/10/16 08:39:23;;;;;;;5.95;3.42;;;16.40;99.90;;;;;;4994376;28;20084;-52
2022/10/16 08:42:02;;;;;;;7.30;3.90;;;16.40;99.90;;;;;;4992961;28;20026;-50
2022/10/16 08:44:36;;;;;;;4.95;3.80;;;16.40;99.90;;;;;;4994767;28;20041;-49
2022/10/16 08:47:16;;;;;;;8.15;4.00;;;16.40;99.90;;;;;;4994741;28;20027;-52
2022/10/16 08:49:47;;;;;;;5.82;3.40;;;16.40;99.90;;;;;;4994418;28;20026;-51
2022/10/16 08:52:13;;;;;;;4.65;3.63;;;16.50;99.90;;;;;;4992865;28;20022;-50
2022/10/16 08:54:44;;;;;;;6.05;4.28;;;16.50;99.90;;;;;;4994737;28;20026;-48
2022/10/16 08:57:14;;;;;;;4.55;3.53;;;16.50;99.90;;;;;;4994409;28;20026;-53
2022/10/16 08:59:39;;;;;;;4.43;3.90;;;16.60;99.90;;;;;;4994368;28;20034;-48
2022/10/16 09:02:19;;;;;;;5.85;4.20;;;16.70;99.90;;;;;;4993991;28;20106;-48
2022/10/16 09:05:23;;;;;;;7.82;4.13;;;16.70;99.90;;;;;;4994149;28;20031;-50
2022/10/16 09:08:01;;;;;;;12.20;3.88;;;16.80;99.90;;;;;;4946115;28;20379;-51
2022/10/16 09:10:54;;;;;;;4.82;3.80;;;16.90;99.90;;;;;;4994239;28;20030;-51
2022/10/16 09:13:53;;;;;;;5.55;3.80;;;16.80;99.90;;;;;;4993968;28;20030;-49
2022/10/16 09:16:36;;;;;;;6.47;4.75;;;16.90;99.90;;;;;;4993900;28;20081;-50
2022/10/16 09:19:20;;;;;;;6.80;3.80;;;16.90;99.90;;;;;;4993682;28;20117;-49
2022/10/16 09:21:47;;;;;;;10.65;4.25;;;17.00;99.90;;;;;;4994101;28;20080;-51
2022/10/16 09:24:20;;;;;;;5.80;3.72;;;17.00;99.90;;;;;;4993856;28;20026;-48
2022/10/16 09:26:47;;;;;;;8.32;4.72;;;17.00;99.90;;;;;;4994751;28;20073;-51
2022/10/16 09:29:14;;;;;;;5.93;4.25;;;17.00;99.90;;;;;;4993313;28;20037;-52
2022/10/16 09:31:40;;;;;;;8.80;4.38;;;17.10;99.90;;;;;;4993640;28;20109;-50
2022/10/16 09:34:14;;;;;;;6.30;3.60;;;17.20;99.90;;;;;;4992457;28;20065;-50
2022/10/16 09:36:44;;;;;;;6.35;4.22;;;17.30;99.90;;;;;;4994324;28;20030;-48
2022/10/16 09:39:14;;;;;;;6.53;3.33;;;17.60;99.90;;;;;;4993604;28;20490;-53
2022/10/16 09:41:43;;;;;;;5.72;3.55;;;17.70;99.90;;;;;;4993617;28;20096;-50
2022/10/16 09:44:28;;;;;;;6.18;3.72;;;17.80;99.90;;;;;;4991759;28;20037;-48
2022/10/16 09:47:05;;;;;;;6.67;4.43;;;18.00;99.90;;;;;;4992583;28;20113;-49
2022/10/16 09:49:31;;;;;;;6.18;3.85;;;18.10;99.90;;;;;;4993263;28;20628;-53
2022/10/16 09:52:14;;;;;;;4.72;4.32;;;18.10;99.90;;;;;;4993105;28;20019;-48
2022/10/16 09:54:56;;;;;;;6.15;3.70;;;18.10;99.90;;;;;;4991967;28;20037;-51
2022/10/16 09:57:22;;;;;;;4.18;3.45;;;18.20;99.90;;;;;;4993833;28;20080;-54
2022/10/16 09:59:56;;;;;;;9.10;4.40;;;18.20;99.90;;;;;;4993236;28;20375;-49
2022/10/16 10:02:35;;;;;;;7.15;3.35;;;18.20;99.90;;;;;;4993150;28;20613;-48
2022/10/16 10:05:02;;;;;;;4.70;3.28;;;18.20;99.90;;;;;;4992226;28;20105;-49
2022/10/16 10:07:35;;;;;;;4.85;4.25;;;18.30;99.90;;;;;;4992495;28;20105;-50
2022/10/16 10:10:04;;;;;;;5.78;3.47;;;18.30;99.90;;;;;;4993427;28;20069;-47
2022/10/16 10:12:32;;;;;;;3.65;3.15;;;18.30;99.90;;;;;;4993272;28;20018;-50
2022/10/16 10:15:10;;;;;;;4.85;4.35;;;18.30;99.90;;;;;;4993807;28;20026;-52
2022/10/16 10:17:46;;;;;;;6.57;3.08;;;18.40;99.90;;;;;;4993575;28;20105;-52
2022/10/16 10:20:34;;;;;;;3.75;3.20;;;18.40;99.90;;;;;;4995588;28;20031;-53
2022/10/16 10:23:00;;;;;;;6.03;3.22;;;18.60;99.90;;;;;;4996941;28;20125;-47
2022/10/16 10:25:48;;;;;;;2.83;2.42;;;18.70;99.90;;;;;;4997661;28;20018;-49
2022/10/16 10:28:13;;;;;;;6.88;3.35;;;18.80;99.90;;;;;;4997577;28;20402;-49
2022/10/16 10:30:47;;;;;;;8.48;3.13;;;18.80;99.90;;;;;;4996768;28;20026;-51
2022/10/16 10:33:43;;;;;;;4.00;2.97;;;18.80;99.90;;;;;;4997009;28;20037;-50
2022/10/16 10:36:41;;;;;;;5.93;2.65;;;18.80;99.90;;;;;;4996419;28;20033;-49
2022/10/16 10:39:25;;;;;;;2.72;2.50;;;18.80;99.90;;;;;;4997364;28;20058;-51
2022/10/16 10:42:08;;;;;;;4.13;2.60;;;18.90;99.90;;;;;;4997842;28;20069;-48
2022/10/16 10:44:34;;;;;;;4.57;2.75;;;19.00;99.90;;;;;;4997632;28;20085;-49
2022/10/16 10:47:08;;;;;;;3.35;2.25;;;19.00;99.90;;;;;;4997549;28;20018;-49
2022/10/16 10:49:42;;;;;;;3.03;2.63;;;19.00;99.90;;;;;;4998186;28;20483;-50
2022/10/16 10:52:08;;;;;;;3.10;2.70;;;19.20;99.90;;;;;;4996400;28;20038;-52
2022/10/16 10:54:53;;;;;;;3.08;2.55;;;19.40;99.90;;;;;;4997077;28;20030;-50
2022/10/16 10:57:35;;;;;;;3.70;2.50;;;19.70;99.90;;;;;;4996891;28;20030;-50
2022/10/16 11:00:23;;;;;;;2.28;2.08;;;19.90;99.90;;;;;;4996001;28;20066;-48
2022/10/16 11:03:13;;;;;;;2.95;2.20;;;20.00;99.90;;;;;;4996718;28;20038;-51
2022/10/16 11:05:59;;;;;;;4.18;2.17;;;20.10;99.90;;;;;;4997185;28;20023;-54
2022/10/16 11:08:32;;;;;;;1.92;1.83;;;20.10;99.90;;;;;;4997069;28;20026;-53
2022/10/16 11:11:03;;;;;;;4.68;2.13;;;20.00;99.90;;;;;;4995598;28;20077;-50
2022/10/16 11:13:42;;;;;;;2.13;2.00;;;20.10;99.90;;;;;;4997148;28;20022;-52
2022/10/16 11:16:20;;;;;;;2.35;2.03;;;20.20;99.90;;;;;;4997054;28;20412;-48
2022/10/16 11:19:12;;;;;;;2.47;1.88;;;20.30;99.90;;;;;;4995945;28;20026;-48
2022/10/16 11:21:50;;;;;;;5.65;2.00;;;20.10;99.90;;;;;;4997961;28;20089;-51
2022/10/16 11:24:34;;;;;;;5.43;2.10;;;20.10;99.90;;;;;;4996522;28;20076;-53
2022/10/16 11:27:06;;;;;;;4.97;2.25;;;20.00;99.90;;;;;;4996303;28;20058;-47
2022/10/16 11:29:34;;;;;;;2.10;1.80;;;20.00;99.90;;;;;;4996477;28;20093;-50
2022/10/16 11:32:22;;;;;;;3.05;2.10;;;20.00;99.90;;;;;;4995559;28;20081;-50
2022/10/16 11:34:57;;;;;;;5.32;2.10;;;19.90;99.90;;;;;;4996115;28;20050;-52
2022/10/16 11:37:44;;;;;;;2.72;1.77;;;19.80;99.90;;;;;;4996292;28;20058;-49
2022/10/16 11:40:43;;;;;;;2.08;1.80;;;19.70;99.90;;;;;;4996171;28;20026;-48
2022/10/16 11:43:35;;;;;;;4.13;2.15;;;19.60;99.90;;;;;;4963185;28;20042;-52
2022/10/16 11:46:09;;;;;;;3.35;1.92;;;19.50;99.90;;;;;;4995812;28;20371;-51
2022/10/16 11:48:50;;;;;;;2.38;2.17;;;19.50;99.90;;;;;;4996033;28;20033;-52
2022/10/16 11:51:38;;;;;;;2.35;2.00;;;19.50;99.90;;;;;;4996085;28;20069;-48
2022/10/16 11:54:43;;;;;;;1.70;1.60;;;19.50;99.90;;;;;;4995700;28;20398;-51
2022/10/16 11:57:14;;;;;;;5.95;2.17;;;19.60;99.90;;;;;;4995950;28;20390;-48
2022/10/16 11:59:57;;;;;;;7.53;3.58;;;19.60;99.90;;;;;;4995222;28;20026;-53
2022/10/16 12:02:38;;;;;;;33.78;25.30;;;19.60;99.90;;;;;;4994844;28;20513;-52
2022/10/16 12:05:04;;;;;;;4.38;3.45;;;19.60;99.90;;;;;;4995745;28;20034;-53
2022/10/16 12:07:38;;;;;;;2.92;1.90;;;19.60;99.90;;;;;;4995890;28;20096;-48
2022/10/16 12:10:22;;;;;;;1.30;1.20;;;19.70;99.90;;;;;;4994292;28;20449;-53
2022/10/16 12:12:48;;;;;;;1.77;1.33;;;19.70;99.90;;;;;;4995587;28;20121;-51
2022/10/16 12:15:24;;;;;;;1.40;1.20;;;19.70;99.90;;;;;;4995197;28;20073;-52
2022/10/16 12:17:50;;;;;;;1.58;1.48;;;19.70;99.90;;;;;;4995513;28;20510;-48
2022/10/16 12:20:30;;;;;;;1.83;1.42;;;19.70;99.90;;;;;;4995481;28;20329;-48
2022/10/16 12:23:02;;;;;;;3.33;1.30;;;19.80;99.90;;;;;;4995405;28;20033;-48
2022/10/16 12:25:30;;;;;;;2.92;1.33;;;19.80;99.90;;;;;;4995331;28;20113;-51
2022/10/16 12:28:05;;;;;;;2.25;1.27;;;19.90;99.90;;;;;;4995125;28;20029;-53
2022/10/16 12:30:36;;;;;;;4.30;1.38;;;19.90;99.90;;;;;;4994603;28;20018;-50
2022/10/16 12:33:20;;;;;;;2.45;1.88;;;19.80;99.90;;;;;;4994262;28;20068;-50
2022/10/16 12:35:46;;;;;;;7.07;1.40;;;19.80;99.90;;;;;;4995036;28;20034;-48
2022/10/16 12:38:17;;;;;;;1.38;1.27;;;19.80;99.90;;;;;;4994393;28;20030;-48
2022/10/16 12:40:45;;;;;;;6.55;1.73;;;19.90;99.90;;;;;;4993175;28;20026;-49
2022/10/16 12:43:25;;;;;;;4.22;1.58;;;19.90;99.90;;;;;;4992854;28;20023;-49
2022/10/16 12:46:04;;;;;;;2.78;1.23;;;19.90;99.90;;;;;;4993850;28;20169;-49
2022/10/16 12:48:30;;;;;;;2.67;1.60;;;20.00;99.90;;;;;;4994588;28;20019;-49
2022/10/16 12:50:56;;;;;;;5.07;1.75;;;20.00;99.90;;;;;;4994912;28;20498;-50
2022/10/16 12:53:26;;;;;;;4.30;2.15;;;19.90;99.90;;;;;;4994409;28;20022;-52
2022/10/16 12:56:21;;;;;;;1.60;1.48;;;19.90;99.90;;;;;;4994691;28;20029;-49
2022/10/16 12:59:05;;;;;;;1.80;1.65;;;19.90;99.90;;;;;;4994990;28;20026;-48
2022/10/16 13:01:57;;;;;;;31.73;25.38;;;20.00;99.90;;;;;;4994719;28;20026;-49
2022/10/16 13:04:46;;;;;;;29.25;22.73;;;20.10;99.90;;;;;;4994552;28;20439;-51
2022/10/16 13:07:14;;;;;;;5.32;2.95;;;20.10;99.90;;;;;;4994671;28;20030;-51